Time;durP1;ratioP1;P1;durP2;ratioP2;P2;SDS_P1;SDS_P2;PMS_P1;PMS_P2;Temp;Humidity;BMP_temperature;BMP_pressure;BME280_temperature;BME280_humidity;BME280_pressure;Samples;Min_cycle;Max_cycle;Signal;HPM_P1;HPM_P2
2023/03/06 00:02:25;;;;;;;39.25;23.45;;;;;;;0.50;100.00;92534.66;5068489;28;20496;-70
2023/03/06 00:04:52;;;;;;;33.25;20.85;;;;;;;0.56;100.00;92546.66;5068770;28;20508;-70
2023/03/06 00:07:20;;;;;;;29.67;18.75;;;;;;;0.56;100.00;92550.91;5068737;28;20912;-70
2023/03/06 00:09:47;;;;;;;27.92;18.35;;;;;;;0.53;100.00;92546.97;5068612;28;20045;-70
2023/03/06 00:12:14;;;;;;;27.55;17.85;;;;;;;0.44;100.00;92537.84;5068038;28;20447;-70
2023/03/06 00:14:40;;;;;;;29.67;19.20;;;;;;;0.56;100.00;92549.19;5056359;28;20090;-70
2023/03/06 00:17:07;;;;;;;29.65;19.10;;;;;;;0.57;100.00;92543.16;5068683;28;20053;-70
2023/03/06 00:19:34;;;;;;;32.55;20.73;;;;;;;0.61;100.00;92539.34;5068115;28;20094;-70
2023/03/06 00:22:02;;;;;;;32.92;20.67;;;;;;;0.65;100.00;92532.25;5068392;28;20558;-71
2023/03/06 00:24:30;;;;;;;32.65;19.83;;;;;;;0.67;100.00;92535.38;5068215;28;20052;-70
2023/03/06 00:26:56;;;;;;;31.13;19.77;;;;;;;0.71;100.00;92529.03;5068414;28;20118;-70
2023/03/06 00:29:23;;;;;;;30.95;19.73;;;;;;;0.74;100.00;92523.63;5046249;28;20072;-70
2023/03/06 00:31:50;;;;;;;33.72;21.25;;;;;;;0.80;100.00;92534.84;5065062;28;20084;-71
2023/03/06 00:34:16;;;;;;;32.60;20.20;;;;;;;0.83;100.00;92541.31;5066245;28;20497;-70
2023/03/06 00:36:43;;;;;;;29.63;18.52;;;;;;;0.87;100.00;92540.00;5067592;28;20146;-70
2023/03/06 00:39:10;;;;;;;28.25;18.77;;;;;;;0.83;100.00;92521.84;5068982;28;20061;-70
2023/03/06 00:41:38;;;;;;;31.42;20.83;;;;;;;0.82;100.00;92542.25;5068132;28;20090;-70
2023/03/06 00:44:05;;;;;;;27.65;16.90;;;;;;;0.77;100.00;92541.00;5068551;28;20094;-70
2023/03/06 00:46:31;;;;;;;26.48;18.20;;;;;;;0.77;100.00;92543.53;5068387;28;20098;-70
2023/03/06 00:48:58;;;;;;;32.90;20.42;;;;;;;0.78;100.00;92539.25;5068431;28;20113;-70
2023/03/06 00:51:25;;;;;;;26.70;18.13;;;;;;;0.71;100.00;92538.34;5067919;28;20037;-70
2023/03/06 00:53:51;;;;;;;29.70;19.38;;;;;;;0.65;100.00;92538.06;5071154;28;20459;-70
2023/03/06 00:56:19;;;;;;;28.00;18.02;;;;;;;0.60;100.00;92540.28;5058380;28;20090;-70
2023/03/06 00:58:47;;;;;;;32.45;18.83;;;;;;;0.61;100.00;92533.50;5071657;28;20623;-70
2023/03/06 01:01:14;;;;;;;28.48;17.00;;;;;;;0.68;100.00;92531.88;5071424;28;20492;-70
2023/03/06 01:03:41;;;;;;;26.42;17.10;;;;;;;0.74;100.00;92522.88;5072113;28;21044;-70
2023/03/06 01:06:07;;;;;;;24.77;16.17;;;;;;;0.79;100.00;92528.22;5071773;28;20076;-70
2023/03/06 01:08:34;;;;;;;24.35;14.95;;;;;;;0.78;100.00;92527.41;5071891;28;20119;-71
2023/03/06 01:11:01;;;;;;;24.85;15.85;;;;;;;0.88;100.00;92523.91;5071856;28;20493;-71
2023/03/06 01:13:27;;;;;;;20.48;14.45;;;;;;;0.90;100.00;92520.25;5069673;28;20102;-71
2023/03/06 01:15:55;;;;;;;21.42;13.75;;;;;;;0.90;100.00;92522.78;5071541;28;20048;-71
2023/03/06 01:18:22;;;;;;;21.80;14.55;;;;;;;0.87;100.00;92518.03;5071934;28;20048;-71
2023/03/06 01:20:49;;;;;;;24.98;14.50;;;;;;;0.79;100.00;92515.56;5071696;28;20127;-71
2023/03/06 01:23:16;;;;;;;22.42;15.73;;;;;;;0.75;100.00;92506.75;5071615;28;20501;-71
2023/03/06 01:25:42;;;;;;;24.55;16.13;;;;;;;0.90;100.00;92514.41;5071923;28;20090;-70
2023/03/06 01:28:09;;;;;;;23.27;15.05;;;;;;;0.96;100.00;92520.53;5062540;28;20045;-71
2023/03/06 01:30:36;;;;;;;23.10;15.38;;;;;;;0.95;100.00;92512.16;5071101;28;20080;-71
2023/03/06 01:33:04;;;;;;;24.50;15.10;;;;;;;0.94;100.00;92510.59;5071693;28;20053;-70
2023/03/06 01:35:30;;;;;;;24.98;14.88;;;;;;;0.96;100.00;92506.13;5071413;28;20098;-70
2023/03/06 01:37:57;;;;;;;23.15;15.43;;;;;;;0.97;100.00;92501.88;5066421;28;20041;-71
2023/03/06 01:40:24;;;;;;;22.40;15.07;;;;;;;0.99;100.00;92503.28;5070681;28;20780;-71
2023/03/06 01:42:51;;;;;;;20.48;14.05;;;;;;;1.02;100.00;92510.50;5071219;28;20082;-70
2023/03/06 01:45:55;;;;;;;24.20;16.05;;;;;;;1.03;100.00;92514.59;5071487;28;20040;-70
2023/03/06 01:48:24;;;;;;;25.85;15.48;;;;;;;0.98;100.00;92504.25;5071013;28;20080;-70
2023/03/06 01:50:53;;;;;;;25.92;16.20;;;;;;;0.99;100.00;92502.47;5071130;28;20055;-71
2023/03/06 01:53:21;;;;;;;30.83;18.85;;;;;;;0.73;100.00;92479.09;5070806;28;20052;-70
2023/03/06 01:55:47;;;;;;;34.20;20.25;;;;;;;0.93;100.00;92509.78;5070741;28;20048;-70
2023/03/06 01:58:18;;;;;;;30.70;18.85;;;;;;;0.76;100.00;92488.09;5070724;28;20076;-70
2023/03/06 02:00:45;;;;;;;29.55;18.25;;;;;;;0.85;100.00;92507.31;5070566;28;21125;-71
2023/03/06 02:03:15;;;;;;;25.60;16.45;;;;;;;0.83;100.00;92509.22;5070748;28;20046;-70
2023/03/06 02:05:44;;;;;;;26.95;16.52;;;;;;;0.63;100.00;92486.09;5070719;28;20052;-70
2023/03/06 02:08:13;;;;;;;25.83;16.25;;;;;;;0.78;100.00;92521.56;5070783;28;20106;-70
2023/03/06 02:10:42;;;;;;;26.27;16.88;;;;;;;0.77;100.00;92515.72;5070563;28;20514;-70
2023/03/06 02:13:09;;;;;;;23.73;15.73;;;;;;;0.74;100.00;92516.06;5070603;28;20045;-71
2023/03/06 02:15:36;;;;;;;23.20;16.00;;;;;;;0.73;100.00;92514.47;5070272;28;20048;-70
2023/03/06 02:18:03;;;;;;;23.20;15.90;;;;;;;0.73;100.00;92516.22;5070936;28;20079;-70
2023/03/06 02:20:35;;;;;;;26.58;17.23;;;;;;;0.70;100.00;92511.50;5070210;28;20833;-70
2023/03/06 02:23:06;;;;;;;24.20;16.48;;;;;;;0.69;100.00;92510.72;5070640;28;20044;-70
2023/03/06 02:25:37;;;;;;;23.17;16.30;;;;;;;0.66;100.00;92511.81;5070143;28;20455;-70
2023/03/06 02:28:05;;;;;;;24.27;16.45;;;;;;;0.61;100.00;92509.00;5060550;28;20049;-70
2023/03/06 02:30:32;;;;;;;25.05;16.38;;;;;;;0.56;100.00;92506.22;5069940;28;20092;-70
2023/03/06 02:32:59;;;;;;;24.73;15.00;;;;;;;0.49;100.00;92511.13;5070229;28;20453;-70
2023/03/06 02:35:27;;;;;;;24.95;15.05;;;;;;;0.46;100.00;92506.41;5069740;28;20455;-70
2023/03/06 02:37:56;;;;;;;24.25;14.38;;;;;;;0.47;100.00;92507.97;5070528;28;20056;-70
2023/03/06 02:40:23;;;;;;;22.80;14.50;;;;;;;0.45;100.00;92514.16;5070052;28;20503;-71
2023/03/06 02:42:55;;;;;;;22.55;14.63;;;;;;;0.46;100.00;92513.97;5069814;28;20048;-70
2023/03/06 02:45:26;;;;;;;23.17;13.50;;;;;;;0.45;100.00;92522.53;5070159;28;20622;-70
2023/03/06 02:47:53;;;;;;;20.73;13.57;;;;;;;0.44;100.00;92518.44;5069845;28;20090;-71
2023/03/06 02:50:20;;;;;;;20.58;13.15;;;;;;;0.41;100.00;92518.75;5069952;28;20080;-71
2023/03/06 02:52:47;;;;;;;20.52;13.95;;;;;;;0.41;100.00;92515.44;5069506;28;20045;-70
2023/03/06 02:55:14;;;;;;;20.80;13.63;;;;;;;0.38;100.00;92522.38;5070189;28;20125;-70
2023/03/06 02:57:40;;;;;;;23.55;14.02;;;;;;;0.32;100.00;92520.50;5069905;28;20049;-70
2023/03/06 03:00:10;;;;;;;24.13;15.35;;;;;;;0.13;100.00;92481.28;5069665;28;20048;-70
2023/03/06 03:02:37;;;;;;;26.23;16.50;;;;;;;0.39;100.00;92511.34;5069720;28;20040;-70
2023/03/06 03:05:04;;;;;;;24.63;15.48;;;;;;;0.31;100.00;92508.84;5069698;28;20052;-70
2023/03/06 03:07:31;;;;;;;27.33;16.10;;;;;;;0.20;100.00;92491.53;5069821;28;20044;-70
2023/03/06 03:09:58;;;;;;;27.25;16.45;;;;;;;0.27;100.00;92510.13;5069420;28;20554;-70
2023/03/06 03:12:26;;;;;;;26.75;16.95;;;;;;;0.30;100.00;92507.28;5069457;28;20189;-70
2023/03/06 03:14:53;;;;;;;25.38;17.25;;;;;;;0.26;100.00;92506.81;5068700;28;20049;-70
2023/03/06 03:17:21;;;;;;;27.35;17.70;;;;;;;0.29;100.00;92509.97;5068762;28;20090;-70
2023/03/06 03:19:48;;;;;;;27.48;16.83;;;;;;;0.29;100.00;92508.22;5069499;28;20389;-70
2023/03/06 03:22:15;;;;;;;30.90;19.15;;;;;;;0.28;100.00;92505.88;5069304;28;20401;-70
2023/03/06 03:24:42;;;;;;;30.70;18.90;;;;;;;0.34;100.00;92492.56;5069393;28;20090;-70
2023/03/06 03:27:09;;;;;;;28.92;18.35;;;;;;;0.35;100.00;92489.88;5066935;28;20045;-70
2023/03/06 03:29:36;;;;;;;32.95;20.92;;;;;;;0.31;100.00;92490.34;5059884;28;20049;-70
2023/03/06 03:32:03;;;;;;;27.88;18.52;;;;;;;0.29;100.00;92485.50;5069297;28;20463;-71
2023/03/06 03:34:31;;;;;;;26.50;17.40;;;;;;;0.26;100.00;92498.44;5068497;28;20056;-70
2023/03/06 03:36:58;;;;;;;29.52;18.30;;;;;;;0.24;100.00;92502.88;5068193;28;20501;-70
2023/03/06 03:39:25;;;;;;;26.38;16.98;;;;;;;0.14;100.00;92492.97;5068776;28;20053;-70
2023/03/06 03:41:52;;;;;;;28.58;17.88;;;;;;;0.24;100.00;92511.22;5068885;28;20090;-70
2023/03/06 03:44:18;;;;;;;28.42;16.75;;;;;;;0.20;100.00;92509.19;5068957;28;20044;-70
2023/03/06 03:46:45;;;;;;;26.20;16.48;;;;;;;0.21;100.00;92514.09;5068582;28;20090;-71
2023/03/06 03:49:12;;;;;;;29.00;16.75;;;;;;;0.10;100.00;92492.50;5069485;28;20044;-70
2023/03/06 03:51:40;;;;;;;24.05;16.90;;;;;;;0.30;100.00;92516.56;5068647;28;20044;-70
2023/03/06 03:54:07;;;;;;;25.67;16.55;;;;;;;0.34;100.00;92518.63;5069256;28;20053;-70
2023/03/06 03:56:34;;;;;;;25.42;16.25;;;;;;;0.36;100.00;92516.72;5067733;28;20052;-70
2023/03/06 03:59:00;;;;;;;25.98;16.02;;;;;;;0.42;100.00;92520.34;5069365;28;20080;-70
2023/03/06 04:01:27;;;;;;;23.88;16.25;;;;;;;0.49;100.00;92521.25;5068920;28;20044;-70
2023/03/06 04:03:54;;;;;;;24.88;16.27;;;;;;;0.46;100.00;92519.03;5068976;28;20094;-70
2023/03/06 04:06:21;;;;;;;23.48;15.10;;;;;;;0.46;100.00;92523.31;5068983;28;20044;-70
2023/03/06 04:08:49;;;;;;;26.92;16.80;;;;;;;0.45;100.00;92519.19;5068985;28;20051;-70
2023/03/06 04:11:16;;;;;;;21.95;16.08;;;;;;;0.53;100.00;92525.03;5068858;28;20470;-70
2023/03/06 04:13:42;;;;;;;24.65;16.95;;;;;;;0.59;100.00;92528.63;5068664;28;20091;-70
2023/03/06 04:16:09;;;;;;;27.17;16.50;;;;;;;0.55;100.00;92509.69;5042721;28;20401;-70
2023/03/06 04:18:36;;;;;;;23.63;16.55;;;;;;;0.75;100.00;92530.25;5068374;28;20045;-70
2023/03/06 04:21:03;;;;;;;26.02;17.90;;;;;;;0.73;100.00;92517.00;5068715;28;20416;-71
2023/03/06 04:23:29;;;;;;;26.02;17.00;;;;;;;0.78;100.00;92534.19;5068775;28;20659;-70
2023/03/06 04:25:58;;;;;;;28.17;17.33;;;;;;;0.76;100.00;92531.88;5068780;28;20087;-71
2023/03/06 04:28:25;;;;;;;27.70;18.48;;;;;;;0.76;100.00;92539.44;5072119;28;20178;-71
2023/03/06 04:30:51;;;;;;;25.25;17.95;;;;;;;0.57;100.00;92524.69;5072959;28;21025;-71
2023/03/06 04:33:18;;;;;;;33.70;22.30;;;;;;;0.71;100.00;92543.41;5072818;28;20041;-71
2023/03/06 04:35:45;;;;;;;38.20;26.67;;;;;;;0.69;100.00;92542.81;5072377;28;20045;-71
2023/03/06 04:38:12;;;;;;;31.73;22.08;;;;;;;0.60;100.00;92529.41;5072468;28;20053;-71
2023/03/06 04:40:39;;;;;;;34.95;21.67;;;;;;;0.79;100.00;92553.50;5072547;28;20044;-71
2023/03/06 04:45:51;;;;;;;31.80;20.63;;;;;;;0.47;100.00;92547.63;5055656;28;20106;-70
2023/03/06 04:48:18;;;;;;;33.45;21.88;;;;;;;0.53;100.00;92552.03;5072381;28;20113;-71
2023/03/06 04:50:45;;;;;;;33.17;21.10;;;;;;;0.51;100.00;92553.94;5071907;28;20040;-71
2023/03/06 04:53:13;;;;;;;33.55;22.35;;;;;;;0.58;100.00;92551.53;5072008;28;20550;-71
2023/03/06 04:55:40;;;;;;;35.22;24.15;;;;;;;0.60;100.00;92549.63;5072125;28;20057;-71
2023/03/06 04:58:08;;;;;;;36.35;24.83;;;;;;;0.71;100.00;92558.56;5071502;28;20512;-71
2023/03/06 05:00:34;;;;;;;31.73;21.88;;;;;;;0.79;100.00;92550.97;5071577;28;20048;-71
2023/03/06 05:03:02;;;;;;;39.55;24.83;;;;;;;0.78;100.00;92537.53;5072110;28;20094;-71
2023/03/06 05:05:29;;;;;;;34.88;24.23;;;;;;;0.75;100.00;92511.81;5071365;28;20044;-71
2023/03/06 05:07:56;;;;;;;36.25;22.63;;;;;;;0.91;100.00;92542.03;5071875;28;20090;-71
2023/03/06 05:10:23;;;;;;;34.58;22.23;;;;;;;0.99;100.00;92545.47;5071501;28;20049;-71
2023/03/06 05:12:50;;;;;;;31.75;19.73;;;;;;;1.04;100.00;92548.28;5071839;28;20497;-71
2023/03/06 05:15:18;;;;;;;32.75;22.35;;;;;;;1.07;100.00;92547.97;5071299;28;20051;-71
2023/03/06 05:17:46;;;;;;;31.35;20.48;;;;;;;1.10;100.00;92551.91;5071604;28;20082;-71
2023/03/06 05:20:14;;;;;;;36.17;21.52;;;;;;;1.08;100.00;92553.78;5071462;28;20049;-72
2023/03/06 05:22:41;;;;;;;31.02;21.10;;;;;;;1.07;100.00;92555.56;5071400;28;20052;-71
2023/03/06 05:25:09;;;;;;;30.83;20.33;;;;;;;1.19;100.00;92550.88;5071621;28;20454;-71
2023/03/06 05:27:36;;;;;;;30.80;20.17;;;;;;;1.21;100.00;92541.41;5071222;28;20044;-71
2023/03/06 05:30:04;;;;;;;32.97;20.65;;;;;;;1.27;100.00;92537.38;5071276;28;20049;-72
2023/03/06 05:32:32;;;;;;;37.53;21.02;;;;;;;1.28;100.00;92542.28;5071427;28;20390;-72
2023/03/06 05:34:59;;;;;;;28.13;20.13;;;;;;;1.32;100.00;92535.13;5071792;28;20098;-71
2023/03/06 05:37:26;;;;;;;27.88;18.80;;;;;;;1.35;100.00;92547.47;5071379;28;20052;-71
2023/03/06 05:39:53;;;;;;;28.48;19.00;;;;;;;1.41;100.00;92545.97;5067034;28;20072;-71
2023/03/06 05:42:19;;;;;;;30.60;19.40;;;;;;;1.45;100.00;92545.47;5069273;28;20575;-70
2023/03/06 05:44:46;;;;;;;34.70;20.67;;;;;;;1.49;100.00;92545.13;5070381;28;20072;-70
2023/03/06 05:47:13;;;;;;;29.98;19.58;;;;;;;1.45;100.00;92535.34;5071013;28;20053;-71
2023/03/06 05:49:41;;;;;;;26.80;18.42;;;;;;;1.49;100.00;92538.34;5070912;28;20049;-71
2023/03/06 05:52:09;;;;;;;29.20;17.80;;;;;;;1.51;100.00;92546.53;5070543;28;20098;-71
2023/03/06 05:54:37;;;;;;;36.35;23.85;;;;;;;1.50;100.00;92547.50;5070861;28;20076;-70
2023/03/06 05:57:05;;;;;;;35.63;23.45;;;;;;;1.59;100.00;92554.06;5070817;28;20056;-70
2023/03/06 05:59:32;;;;;;;31.23;21.40;;;;;;;1.50;100.00;92528.97;5070552;28;20044;-70
2023/03/06 06:01:59;;;;;;;51.33;30.00;;;;;;;1.59;100.00;92549.00;5071391;28;20514;-71
2023/03/06 06:04:26;;;;;;;40.90;26.27;;;;;;;1.64;100.00;92551.03;5057506;28;20481;-71
2023/03/06 06:06:56;;;;;;;33.33;23.05;;;;;;;1.69;100.00;92558.91;5070327;28;20091;-71
2023/03/06 06:09:23;;;;;;;36.65;24.38;;;;;;;1.78;100.00;92566.41;5070975;28;20097;-70
2023/03/06 06:11:52;;;;;;;38.55;25.08;;;;;;;1.86;100.00;92563.81;5070613;28;20053;-70
2023/03/06 06:14:19;;;;;;;38.88;23.83;;;;;;;1.93;100.00;92569.75;5070961;28;20048;-71
2023/03/06 06:16:45;;;;;;;37.78;25.80;;;;;;;1.95;100.00;92565.31;5070309;28;20048;-70
2023/03/06 06:19:17;;;;;;;39.53;25.10;;;;;;;1.86;100.00;92541.03;5070359;28;20558;-70
2023/03/06 06:21:45;;;;;;;38.42;26.63;;;;;;;2.03;100.00;92574.56;5069878;28;20052;-70
2023/03/06 06:24:14;;;;;;;49.40;29.85;;;;;;;1.82;100.00;92573.50;5070567;28;20048;-69
2023/03/06 06:26:41;;;;;;;42.88;27.77;;;;;;;1.92;100.00;92570.72;5070536;28;20037;-69
2023/03/06 06:29:07;;;;;;;44.22;28.35;;;;;;;1.99;100.00;92573.38;5070552;28;20408;-69
2023/03/06 06:31:35;;;;;;;42.88;27.67;;;;;;;1.90;100.00;92565.03;5067313;28;20048;-70
2023/03/06 06:34:02;;;;;;;45.95;25.55;;;;;;;1.95;100.00;92556.94;5069113;28;20086;-70
2023/03/06 06:36:29;;;;;;;39.28;23.75;;;;;;;1.80;100.00;92580.47;5068629;28;20113;-70
2023/03/06 06:38:55;;;;;;;36.13;23.50;;;;;;;1.83;100.00;92580.16;5062372;28;20153;-70
2023/03/06 06:41:24;;;;;;;36.47;24.65;;;;;;;1.87;100.00;92575.53;5064659;28;20098;-69
2023/03/06 06:43:50;;;;;;;39.78;23.40;;;;;;;1.83;100.00;92577.63;5070120;28;20044;-70
2023/03/06 06:46:17;;;;;;;43.97;26.60;;;;;;;1.96;100.00;92568.63;5069987;28;20106;-70
2023/03/06 06:48:44;;;;;;;39.28;25.20;;;;;;;1.91;100.00;92586.09;5069852;28;20049;-69
2023/03/06 06:51:11;;;;;;;43.97;26.67;;;;;;;1.97;100.00;92581.13;5069856;28;20048;-70
2023/03/06 06:53:37;;;;;;;44.35;28.63;;;;;;;2.00;100.00;92580.00;5069612;28;20074;-69
2023/03/06 06:56:05;;;;;;;47.20;32.33;;;;;;;2.06;100.00;92584.38;5069480;28;20613;-70
2023/03/06 06:58:33;;;;;;;47.85;29.05;;;;;;;2.22;100.00;92587.72;5069717;28;20080;-70
2023/03/06 07:01:05;;;;;;;53.72;32.05;;;;;;;2.47;100.00;92587.44;5069351;28;20589;-69
2023/03/06 07:03:31;;;;;;;52.05;32.53;;;;;;;2.64;100.00;92588.84;5069948;28;20079;-69
2023/03/06 07:05:58;;;;;;;52.42;32.40;;;;;;;2.86;100.00;92581.28;5069127;28;20550;-69
2023/03/06 07:08:25;;;;;;;48.08;29.70;;;;;;;3.15;100.00;92594.09;5069877;28;20429;-69
2023/03/06 07:10:51;;;;;;;43.35;26.98;;;;;;;3.33;100.00;92596.22;5069499;28;20078;-69
2023/03/06 07:13:18;;;;;;;47.42;28.85;;;;;;;3.53;100.00;92593.88;5069355;28;20815;-69
2023/03/06 07:15:49;;;;;;;48.85;29.23;;;;;;;3.63;100.00;92580.09;5069017;28;20049;-69
2023/03/06 07:18:16;;;;;;;54.70;32.17;;;;;;;3.91;100.00;92585.19;5069684;28;20052;-69
2023/03/06 07:20:43;;;;;;;56.80;30.27;;;;;;;4.17;100.00;92580.50;5068952;28;20041;-69
2023/03/06 07:23:12;;;;;;;31.23;18.90;;;;;;;4.44;100.00;92580.66;5069077;28;20044;-69
2023/03/06 07:25:39;;;;;;;23.58;14.88;;;;;;;4.68;100.00;92592.13;5069377;28;20044;-69
2023/03/06 07:28:06;;;;;;;22.83;15.75;;;;;;;4.85;98.59;92586.72;5069356;28;20048;-69
2023/03/06 07:30:33;;;;;;;23.63;15.45;;;;;;;5.05;97.96;92590.09;5068815;28;20135;-69
2023/03/06 07:33:01;;;;;;;25.98;14.85;;;;;;;5.33;96.44;92591.00;5069073;28;20044;-68
2023/03/06 07:35:28;;;;;;;25.55;14.10;;;;;;;5.46;95.42;92590.25;5069272;28;20076;-68
2023/03/06 07:37:55;;;;;;;22.50;11.82;;;;;;;5.61;93.64;92597.69;5068962;28;20052;-69
2023/03/06 07:40:22;;;;;;;21.00;11.98;;;;;;;5.55;91.64;92568.69;5068330;28;20526;-69
2023/03/06 07:42:48;;;;;;;20.58;11.35;;;;;;;5.82;90.31;92593.38;5069281;28;20045;-69
2023/03/06 07:45:15;;;;;;;17.33;11.05;;;;;;;5.96;90.95;92589.88;5068539;28;20075;-69
2023/03/06 07:47:42;;;;;;;15.65;9.85;;;;;;;6.01;89.00;92587.53;5069007;28;20496;-69
2023/03/06 07:50:12;;;;;;;18.63;10.63;;;;;;;5.97;89.21;92586.34;5055871;28;20137;-69
2023/03/06 07:52:38;;;;;;;22.85;11.65;;;;;;;6.25;89.07;92597.34;5068621;28;20052;-69
2023/03/06 07:55:06;;;;;;;21.20;10.80;;;;;;;6.51;88.60;92601.63;5068928;28;20481;-69
2023/03/06 07:57:33;;;;;;;19.58;10.80;;;;;;;6.64;85.51;92592.38;5068878;28;20094;-69
2023/03/06 07:59:59;;;;;;;24.05;12.43;;;;;;;6.72;85.38;92591.38;5068877;28;20057;-69
2023/03/06 08:02:26;;;;;;;21.30;11.73;;;;;;;6.80;84.78;92596.25;5073082;28;20080;-69
2023/03/06 08:04:53;;;;;;;18.88;11.90;;;;;;;6.91;84.72;92602.50;5075153;28;20052;-69
2023/03/06 08:07:22;;;;;;;14.57;9.65;;;;;;;6.81;83.64;92583.28;5075843;28;20055;-69
2023/03/06 08:09:49;;;;;;;16.85;10.55;;;;;;;7.15;83.88;92597.69;5075318;28;20052;-69
2023/03/06 08:12:16;;;;;;;14.02;9.88;;;;;;;7.14;83.43;92596.13;5075612;28;20079;-69
2023/03/06 08:14:43;;;;;;;17.10;10.05;;;;;;;7.20;82.75;92601.22;5075888;28;20053;-69
2023/03/06 08:17:09;;;;;;;15.95;9.30;;;;;;;7.29;82.54;92598.41;5075277;28;20094;-69
2023/03/06 08:19:36;;;;;;;18.40;9.77;;;;;;;7.38;81.46;92601.50;5075263;28;20121;-69
2023/03/06 08:22:04;;;;;;;16.27;9.73;;;;;;;7.50;82.91;92604.97;5072225;28;20041;-69
2023/03/06 08:24:32;;;;;;;20.17;10.00;;;;;;;7.75;81.56;92611.91;5074029;28;20072;-69
2023/03/06 08:26:59;;;;;;;17.77;9.88;;;;;;;7.94;80.20;92612.78;5074863;28;20117;-69
2023/03/06 08:29:26;;;;;;;16.65;9.30;;;;;;;8.09;78.55;92615.03;5075492;28;20477;-69
2023/03/06 08:31:53;;;;;;;16.63;9.23;;;;;;;8.14;78.34;92611.81;5074733;28;20049;-69
2023/03/06 08:34:23;;;;;;;15.68;8.50;;;;;;;8.23;78.00;92613.16;5074909;28;20090;-69
2023/03/06 08:36:49;;;;;;;14.30;9.07;;;;;;;8.31;76.60;92613.84;5075194;28;20044;-69
2023/03/06 08:39:16;;;;;;;15.20;9.20;;;;;;;8.34;76.34;92613.44;5075303;28;20102;-69
2023/03/06 08:41:45;;;;;;;13.98;7.95;;;;;;;8.44;76.16;92608.66;5074597;28;20040;-69
2023/03/06 08:44:11;;;;;;;17.08;8.82;;;;;;;8.57;75.10;92618.00;5075245;28;20094;-69
2023/03/06 08:46:38;;;;;;;13.40;8.35;;;;;;;8.64;74.54;92611.03;5075373;28;20413;-69
2023/03/06 08:49:06;;;;;;;16.60;9.30;;;;;;;8.81;76.13;92607.91;5075025;28;20390;-69
2023/03/06 08:51:33;;;;;;;15.57;9.07;;;;;;;8.31;74.64;92511.50;5074524;28;20044;-69
2023/03/06 08:54:00;;;;;;;15.80;8.68;;;;;;;9.04;74.17;92611.63;5075393;28;20048;-69
2023/03/06 08:56:29;;;;;;;16.40;9.05;;;;;;;9.17;74.04;92610.69;5070885;28;20061;-69
2023/03/06 08:58:59;;;;;;;15.00;8.35;;;;;;;9.14;73.33;92609.34;5066377;28;20045;-69
2023/03/06 09:01:27;;;;;;;15.48;8.18;;;;;;;9.16;74.28;92611.69;5074830;28;20102;-69
2023/03/06 09:03:55;;;;;;;14.38;8.45;;;;;;;9.26;72.25;92606.03;5074897;28;20049;-69
2023/03/06 09:06:23;;;;;;;16.20;8.30;;;;;;;9.35;72.70;92608.09;5075406;28;21066;-69
2023/03/06 09:08:51;;;;;;;15.13;8.55;;;;;;;9.45;72.39;92607.56;5074739;28;20072;-69
2023/03/06 09:11:18;;;;;;;16.55;8.88;;;;;;;9.52;71.89;92596.44;5075339;28;20076;-69
2023/03/06 09:13:45;;;;;;;16.15;8.00;;;;;;;9.63;71.51;92606.72;5071568;28;20045;-69
2023/03/06 09:16:13;;;;;;;11.32;7.20;;;;;;;9.76;73.35;92604.97;5071797;28;20048;-69
2023/03/06 09:18:40;;;;;;;14.30;7.63;;;;;;;9.81;71.35;92604.34;5071369;28;20056;-69
2023/03/06 09:21:08;;;;;;;16.85;7.97;;;;;;;9.83;72.14;92592.84;5071668;28;20455;-69
2023/03/06 09:23:35;;;;;;;15.68;8.52;;;;;;;9.84;71.12;92576.47;5071778;28;20040;-69
2023/03/06 09:26:02;;;;;;;12.40;7.40;;;;;;;10.11;69.88;92601.72;5071330;28;20049;-69
2023/03/06 09:28:29;;;;;;;16.08;7.70;;;;;;;10.25;70.81;92601.50;5071454;28;20156;-69
2023/03/06 09:30:56;;;;;;;16.20;7.95;;;;;;;10.32;70.02;92597.03;5071597;28;20129;-69
2023/03/06 09:33:24;;;;;;;15.23;8.43;;;;;;;10.35;68.83;92603.50;5070975;28;20505;-69
2023/03/06 09:35:53;;;;;;;13.32;7.60;;;;;;;10.36;69.40;92603.28;5067568;28;20044;-69
2023/03/06 09:38:22;;;;;;;14.60;8.23;;;;;;;10.39;69.10;92590.00;5071540;28;20102;-69
2023/03/06 09:41:02;;;;;;;17.60;8.45;;;;;;;10.42;69.80;92592.13;5071204;28;20130;-69
2023/03/06 09:43:31;;;;;;;15.35;9.13;;;;;;;10.42;68.88;92599.81;5071350;28;20052;-69
2023/03/06 09:45:58;;;;;;;16.35;8.65;;;;;;;10.40;69.08;92596.72;5071279;28;20041;-69
2023/03/06 09:48:39;;;;;;;14.20;8.10;;;;;;;10.40;69.87;92591.56;5071035;28;20044;-69
2023/03/06 09:51:12;;;;;;;12.15;7.45;;;;;;;10.41;69.25;92592.34;5070888;28;20130;-69
2023/03/06 09:53:51;;;;;;;11.88;7.82;;;;;;;10.45;69.30;92590.16;5071083;28;20056;-69
2023/03/06 09:56:20;;;;;;;14.20;8.48;;;;;;;10.52;68.99;92595.94;5071043;28;20040;-69
2023/03/06 09:58:49;;;;;;;19.63;10.23;;;;;;;10.72;70.33;92589.66;5070790;28;20844;-69
2023/03/06 10:01:21;;;;;;;15.27;9.13;;;;;;;10.90;70.08;92589.53;5070827;28;20097;-69
2023/03/06 10:03:54;;;;;;;16.30;8.48;;;;;;;11.05;70.54;92581.34;5059251;28;20044;-70
2023/03/06 10:06:25;;;;;;;14.10;7.60;;;;;;;11.10;68.22;92580.66;5069753;28;20125;-69
2023/03/06 10:08:58;;;;;;;13.00;8.30;;;;;;;11.15;68.63;92577.41;5070418;28;20045;-69
2023/03/06 10:11:31;;;;;;;12.68;7.60;;;;;;;11.09;67.99;92577.31;5044852;28;20048;-69
2023/03/06 10:14:13;;;;;;;18.45;9.10;;;;;;;11.03;68.35;92544.81;5070758;28;20122;-69
2023/03/06 10:16:40;;;;;;;20.00;8.10;;;;;;;11.21;67.22;92569.56;5070417;28;20095;-69
2023/03/06 10:19:14;;;;;;;14.48;7.75;;;;;;;11.21;67.89;92568.78;5070312;28;20146;-69
2023/03/06 10:21:51;;;;;;;11.45;6.55;;;;;;;11.28;66.83;92573.78;5070498;28;20089;-69
2023/03/06 10:24:35;;;;;;;10.88;6.60;;;;;;;11.35;67.96;92570.06;5070118;28;20044;-69
2023/03/06 10:27:15;;;;;;;14.38;8.13;;;;;;;11.50;66.83;92568.78;5070364;28;20040;-69
2023/03/06 10:29:51;;;;;;;12.45;6.13;;;;;;;11.58;66.79;92568.41;5070443;28;20081;-69
2023/03/06 10:32:26;;;;;;;11.50;5.85;;;;;;;11.74;65.01;92566.88;5064736;28;20060;-69
2023/03/06 10:34:57;;;;;;;10.73;6.18;;;;;;;11.89;63.83;92557.81;5063656;28;20125;-69
2023/03/06 10:37:24;;;;;;;14.82;7.80;;;;;;;12.04;64.80;92557.34;5068690;28;20094;-69
2023/03/06 10:39:55;;;;;;;11.23;7.10;;;;;;;12.12;64.97;92558.72;5049765;28;20142;-70
2023/03/06 10:42:22;;;;;;;13.48;6.63;;;;;;;12.08;63.72;92555.84;5067835;28;20094;-70
2023/03/06 10:45:07;;;;;;;9.73;5.78;;;;;;;11.58;60.92;92547.06;5070261;28;20080;-69
2023/03/06 10:47:36;;;;;;;13.10;7.20;;;;;;;11.71;63.89;92545.97;5052720;28;20044;-69
2023/03/06 10:50:07;;;;;;;9.15;5.70;;;;;;;11.72;61.40;92542.41;5051853;28;20055;-69
2023/03/06 10:52:35;;;;;;;10.77;6.28;;;;;;;11.71;61.58;92549.31;5061791;28;20095;-69
2023/03/06 10:55:24;;;;;;;12.48;6.80;;;;;;;11.94;62.97;92542.47;5069515;28;20504;-69
2023/03/06 10:57:52;;;;;;;11.80;6.13;;;;;;;12.05;60.94;92535.72;5069638;28;20171;-69
2023/03/06 11:00:31;;;;;;;12.25;6.03;;;;;;;12.06;61.04;92518.47;5059394;28;20089;-71
2023/03/06 11:03:23;;;;;;;10.52;6.28;;;;;;;12.21;60.67;92521.25;5063951;28;20558;-70
2023/03/06 11:06:02;;;;;;;11.82;6.07;;;;;;;12.18;61.59;92526.91;5066549;28;20052;-70
2023/03/06 11:08:30;;;;;;;14.35;6.25;;;;;;;12.21;61.68;92517.94;5069154;28;20052;-70
2023/03/06 11:11:00;;;;;;;12.00;6.35;;;;;;;12.32;61.73;92519.63;5069583;28;20044;-70
2023/03/06 11:13:32;;;;;;;13.25;7.97;;;;;;;12.42;61.82;92503.53;5069753;28;20114;-70
2023/03/06 11:16:06;;;;;;;10.90;6.28;;;;;;;12.46;62.40;92491.72;5069773;28;20045;-71
2023/03/06 11:18:38;;;;;;;10.82;6.20;;;;;;;12.53;59.84;92494.09;5069585;28;20086;-70
2023/03/06 11:21:25;;;;;;;12.57;6.45;;;;;;;12.64;61.61;92492.44;5065195;28;20052;-70
2023/03/06 11:23:53;;;;;;;11.13;6.45;;;;;;;12.72;60.96;92489.44;5053972;28;20049;-70
2023/03/06 11:26:34;;;;;;;11.02;6.50;;;;;;;12.67;60.97;92485.00;5057309;28;20433;-70
2023/03/06 11:29:15;;;;;;;11.90;6.95;;;;;;;12.60;59.67;92486.22;5043534;28;20076;-70
2023/03/06 11:31:48;;;;;;;13.07;7.25;;;;;;;12.63;61.33;92478.00;5068501;28;20071;-70